createdAt,value
2018-06-01T00:00:33.643Z,3.53
2018-06-01T00:03:01.149Z,3.60
2018-06-01T00:05:29.415Z,3.50
2018-06-01T00:07:56.917Z,3.53
2018-06-01T00:10:25.154Z,3.30
2018-06-01T00:12:52.662Z,2.70
2018-06-01T00:15:20.136Z,3.60
2018-06-01T00:17:47.625Z,3.70
2018-06-01T00:20:15.110Z,2.77
2018-06-01T00:22:43.396Z,2.90
2018-06-01T00:25:11.669Z,2.70
2018-06-01T00:27:39.138Z,2.50
2018-06-01T00:30:07.377Z,2.67
2018-06-01T00:32:35.655Z,2.40
2018-06-01T00:35:03.135Z,2.53
2018-06-01T00:37:30.617Z,2.80
2018-06-01T00:39:58.117Z,2.27
2018-06-01T00:42:25.606Z,2.00
2018-06-01T00:44:53.097Z,2.00
2018-06-01T00:47:20.573Z,2.30
2018-06-01T00:49:48.073Z,2.27
2018-06-01T00:52:15.537Z,1.83
2018-06-01T00:55:07.822Z,2.50
2018-06-01T00:57:35.345Z,2.60
2018-06-01T01:00:03.614Z,2.63
2018-06-01T01:02:31.078Z,2.43
2018-06-01T01:04:59.350Z,2.17
2018-06-01T01:07:26.836Z,2.40
2018-06-01T01:09:55.098Z,2.10
2018-06-01T01:12:23.329Z,2.43
2018-06-01T01:14:50.801Z,2.10
2018-06-01T01:17:18.297Z,2.30
2018-06-01T01:19:45.785Z,2.30
2018-06-01T01:22:13.277Z,1.93
2018-06-01T01:24:40.738Z,1.80
2018-06-01T01:27:08.257Z,1.90
2018-06-01T01:29:35.759Z,2.10
2018-06-01T01:32:03.255Z,2.00
2018-06-01T01:34:30.740Z,1.70
2018-06-01T01:36:58.233Z,1.63
2018-06-01T01:39:26.470Z,1.23
2018-06-01T01:41:53.985Z,1.57
2018-06-01T01:44:21.433Z,1.33
2018-06-01T01:46:48.927Z,1.60
2018-06-01T01:49:16.407Z,1.60
2018-06-01T01:51:43.899Z,1.60
2018-06-01T01:54:12.149Z,1.53
2018-06-01T01:56:39.649Z,1.57
2018-06-01T01:59:07.133Z,1.57
2018-06-01T02:01:34.616Z,1.70
2018-06-01T02:04:02.116Z,1.53
2018-06-01T02:06:30.359Z,1.40
2018-06-01T02:08:57.842Z,1.40
2018-06-01T02:11:25.313Z,1.73
2018-06-01T02:13:52.797Z,1.50
2018-06-01T02:16:21.031Z,1.70
2018-06-01T02:18:48.546Z,1.57
2018-06-01T02:21:16.029Z,1.63
2018-06-01T02:23:43.503Z,1.20
2018-06-01T02:26:10.995Z,1.40
2018-06-01T02:28:39.279Z,1.63
2018-06-01T02:31:07.501Z,1.40
2018-06-01T02:33:34.978Z,1.30
2018-06-01T02:36:02.462Z,1.60
2018-06-01T02:38:30.695Z,1.20
2018-06-01T02:40:58.186Z,1.27
2018-06-01T02:43:26.414Z,1.40
2018-06-01T02:45:53.902Z,1.47
2018-06-01T02:48:21.371Z,1.57
2018-06-01T02:50:48.860Z,1.40
2018-06-01T02:53:17.119Z,1.50
2018-06-01T02:55:44.601Z,1.60
2018-06-01T02:58:12.883Z,1.63
2018-06-01T03:00:41.129Z,1.40
2018-06-01T03:03:08.625Z,1.50
2018-06-01T03:05:36.098Z,1.57
2018-06-01T03:08:03.589Z,1.70
2018-06-01T03:10:31.057Z,1.47
2018-06-01T03:12:58.574Z,1.70
2018-06-01T03:15:26.037Z,1.53
2018-06-01T03:17:53.538Z,1.53
2018-06-01T03:20:21.764Z,1.57
2018-06-01T03:22:49.281Z,1.73
2018-06-01T03:25:17.533Z,1.47
2018-06-01T03:27:44.995Z,1.73
2018-06-01T03:30:12.483Z,1.77
2018-06-01T03:32:40.733Z,1.63
2018-06-01T03:35:08.225Z,1.97
2018-06-01T03:37:36.506Z,1.67
2018-06-01T03:40:04.729Z,1.50
2018-06-01T03:42:32.221Z,1.70
2018-06-01T03:45:00.480Z,1.80
2018-06-01T03:47:29.477Z,1.80
2018-06-01T03:49:58.490Z,2.00
2018-06-01T03:52:26.741Z,1.80
2018-06-01T03:54:54.240Z,1.80
2018-06-01T03:57:21.718Z,1.80
2018-06-01T03:59:49.213Z,1.83
2018-06-01T04:02:16.701Z,1.80
2018-06-01T04:04:44.953Z,1.37
2018-06-01T04:07:13.185Z,1.40
2018-06-01T04:09:40.686Z,1.60
2018-06-01T04:12:08.149Z,1.73
2018-06-01T04:14:36.428Z,1.80
2018-06-01T04:17:05.393Z,1.87
2018-06-01T04:19:32.877Z,1.77
2018-06-01T04:22:01.855Z,1.40
2018-06-01T04:24:29.360Z,1.47
2018-06-01T04:26:57.606Z,1.57
2018-06-01T04:29:25.847Z,1.50
2018-06-01T04:31:53.329Z,2.00
2018-06-01T04:34:20.817Z,1.60
2018-06-01T04:36:48.301Z,1.80
2018-06-01T04:39:15.772Z,1.80
2018-06-01T04:41:43.246Z,2.17
2018-06-01T04:44:10.751Z,1.80
2018-06-01T04:46:38.222Z,2.30
2018-06-01T04:49:06.481Z,1.90
2018-06-01T04:51:33.978Z,2.23
2018-06-01T04:54:01.499Z,2.20
2018-06-01T04:56:28.993Z,2.20
2018-06-01T04:58:56.466Z,1.90
2018-06-01T05:01:24.089Z,2.10
2018-06-01T05:03:52.500Z,2.03
2018-06-01T05:06:19.988Z,1.87
2018-06-01T05:08:47.460Z,1.90
2018-06-01T05:11:16.494Z,2.10
2018-06-01T05:13:45.151Z,2.67
2018-06-01T05:16:14.118Z,1.80
2018-06-01T05:18:41.622Z,1.80
2018-06-01T05:21:10.334Z,2.10
2018-06-01T05:23:37.809Z,2.37
2018-06-01T05:26:05.333Z,2.00
2018-06-01T05:28:34.014Z,1.90
2018-06-01T05:31:03.834Z,2.30
2018-06-01T05:33:32.049Z,2.47
2018-06-01T05:35:59.560Z,2.23
2018-06-01T05:38:27.789Z,2.17
2018-06-01T05:40:55.296Z,1.87
2018-06-01T05:43:24.724Z,2.33
2018-06-01T05:45:52.328Z,2.23
2018-06-01T05:48:19.800Z,2.67
2018-06-01T05:50:47.294Z,2.53
2018-06-01T05:53:14.801Z,3.60
2018-06-01T05:55:43.826Z,2.93
2018-06-01T05:58:12.102Z,2.37
2018-06-01T06:00:40.351Z,2.27
2018-06-01T06:03:08.567Z,2.40
2018-06-01T06:05:36.949Z,2.33
2018-06-01T06:08:04.446Z,2.33
2018-06-01T06:10:32.113Z,2.63
2018-06-01T06:13:00.211Z,2.97
2018-06-01T06:15:28.530Z,2.83
2018-06-01T06:17:56.227Z,3.07
2018-06-01T06:20:23.705Z,3.13
2018-06-01T06:22:53.014Z,2.70
2018-06-01T06:25:20.507Z,2.27
2018-06-01T06:27:48.777Z,3.50
2018-06-01T06:30:17.929Z,2.37
2018-06-01T06:32:45.438Z,2.63
2018-06-01T06:35:13.911Z,3.33
2018-06-01T06:37:42.408Z,3.93
2018-06-01T06:40:09.870Z,3.47
2018-06-01T06:42:37.344Z,3.57
2018-06-01T06:45:04.854Z,3.70
2018-06-01T06:47:32.316Z,4.10
2018-06-01T06:50:00.593Z,4.50
2018-06-01T06:52:28.825Z,3.40
2018-06-01T06:54:56.325Z,3.53
2018-06-01T06:57:24.584Z,3.60
2018-06-01T06:59:52.060Z,3.60
2018-06-01T07:02:19.517Z,3.60
2018-06-01T07:04:47.786Z,3.00
2018-06-01T07:07:15.261Z,3.57
2018-06-01T07:09:43.513Z,3.83
2018-06-01T07:12:11.029Z,3.37
2018-06-01T07:14:38.527Z,3.27
2018-06-01T07:17:06.022Z,3.53
2018-06-01T07:19:34.280Z,3.80
2018-06-01T07:22:01.790Z,3.53
2018-06-01T07:24:29.297Z,3.33
2018-06-01T07:26:56.782Z,3.30
2018-06-01T07:29:24.248Z,3.00
2018-06-01T07:31:51.737Z,3.70
2018-06-01T07:34:19.205Z,3.30
2018-06-01T07:36:46.723Z,3.40
2018-06-01T07:39:14.225Z,3.77
2018-06-01T07:41:41.726Z,3.10
2018-06-01T07:44:09.957Z,3.27
2018-06-01T07:46:37.446Z,3.10
2018-06-01T07:49:05.689Z,3.63
2018-06-01T07:51:33.330Z,3.60
2018-06-01T07:54:00.826Z,3.17
2018-06-01T07:56:28.318Z,3.17
2018-06-01T07:58:56.573Z,3.60
2018-06-01T08:01:24.045Z,3.83
2018-06-01T08:03:52.308Z,3.93
2018-06-01T08:06:19.829Z,3.20
2018-06-01T08:08:47.320Z,3.37
2018-06-01T08:11:14.793Z,3.10
2018-06-01T08:13:43.069Z,3.00
2018-06-01T08:16:11.318Z,2.83
2018-06-01T08:18:38.830Z,3.70
2018-06-01T08:21:06.323Z,3.63
2018-06-01T08:23:33.820Z,3.00
2018-06-01T08:26:02.073Z,3.50
2018-06-01T08:28:29.576Z,2.60
2018-06-01T08:30:57.825Z,2.80
2018-06-01T08:33:25.292Z,2.83
2018-06-01T08:35:53.561Z,2.70
2018-06-01T08:38:21.824Z,3.00
2018-06-01T08:40:49.322Z,3.17
2018-06-01T08:43:16.797Z,3.03
2018-06-01T08:45:44.306Z,3.57
2018-06-01T08:48:11.797Z,2.93
2018-06-01T08:50:40.057Z,3.40
2018-06-01T08:53:08.294Z,3.03
2018-06-01T08:55:35.785Z,3.03
2018-06-01T08:58:03.289Z,2.90
2018-06-01T09:00:30.762Z,3.40
2018-06-01T09:02:58.274Z,3.40
2018-06-01T09:05:26.509Z,3.00
2018-06-01T09:07:54.001Z,4.40
2018-06-01T09:10:22.245Z,3.67
2018-06-01T09:12:49.729Z,14.90
2018-06-01T09:15:17.978Z,2.83
2018-06-01T09:17:45.485Z,3.73
2018-06-01T09:20:13.698Z,3.20
2018-06-01T09:22:41.229Z,3.50
2018-06-01T09:25:08.690Z,3.33
2018-06-01T09:27:36.164Z,3.20
2018-06-01T09:30:03.645Z,2.40
2018-06-01T09:32:31.118Z,2.87
2018-06-01T09:34:58.613Z,2.60
2018-06-01T09:37:26.855Z,3.47
2018-06-01T09:39:54.401Z,3.27
2018-06-01T09:42:21.897Z,2.90
2018-06-01T09:44:50.150Z,2.47
2018-06-01T09:47:17.609Z,3.27
2018-06-01T09:49:45.105Z,3.10
2018-06-01T09:52:13.341Z,2.80
2018-06-01T09:54:40.841Z,3.33
2018-06-01T09:57:08.306Z,3.07
2018-06-01T09:59:35.837Z,3.17
2018-06-01T10:02:03.326Z,3.23
2018-06-01T10:04:30.794Z,3.17
2018-06-01T10:06:58.302Z,3.23
2018-06-01T10:09:25.793Z,2.73
2018-06-01T10:11:53.305Z,3.03
2018-06-01T10:14:20.789Z,3.40
2018-06-01T10:16:49.062Z,3.20
2018-06-01T10:19:17.292Z,3.00
2018-06-01T10:21:44.802Z,2.97
2018-06-01T10:24:13.026Z,2.70
2018-06-01T10:26:40.530Z,3.30
2018-06-01T10:29:08.815Z,2.80
2018-06-01T10:31:37.085Z,3.27
2018-06-01T10:34:04.596Z,2.90
2018-06-01T10:36:32.075Z,2.93
2018-06-01T10:38:59.608Z,3.50
2018-06-01T10:41:27.093Z,3.43
2018-06-01T10:43:54.598Z,3.40
2018-06-01T10:46:22.835Z,3.43
2018-06-01T10:48:50.334Z,3.50
2018-06-01T10:51:17.824Z,3.07
2018-06-01T10:53:45.327Z,3.17
2018-06-01T10:56:13.603Z,3.40
2018-06-01T10:58:41.097Z,3.03
2018-06-01T11:01:08.608Z,3.40
2018-06-01T11:03:36.090Z,3.07
2018-06-01T11:06:04.357Z,3.10
2018-06-01T11:08:32.616Z,3.33
2018-06-01T11:11:00.121Z,3.40
2018-06-01T11:13:28.360Z,3.67
2018-06-01T11:15:55.861Z,3.47
2018-06-01T11:18:23.340Z,3.10
2018-06-01T11:20:50.814Z,2.80
2018-06-01T11:23:18.322Z,3.00
2018-06-01T11:25:46.581Z,3.47
2018-06-01T11:28:14.097Z,18.47
2018-06-01T11:30:41.626Z,26.30
2018-06-01T11:33:09.926Z,8.73
2018-06-01T11:35:37.412Z,3.70
2018-06-01T11:38:04.928Z,2.80
2018-06-01T11:40:32.444Z,3.30
2018-06-01T11:42:59.930Z,3.00
2018-06-01T11:45:28.181Z,3.47
2018-06-01T11:47:55.665Z,2.80
2018-06-01T11:50:23.905Z,3.17
2018-06-01T11:52:51.437Z,2.80
2018-06-01T11:55:18.901Z,2.60
2018-06-01T11:57:46.366Z,3.20
2018-06-01T12:00:13.890Z,3.27
2018-06-01T12:02:41.347Z,2.40
2018-06-01T12:05:08.836Z,3.40
2018-06-01T12:07:36.321Z,3.10
2018-06-01T12:10:03.818Z,3.00
2018-06-01T12:12:32.108Z,3.00
2018-06-01T12:14:59.593Z,2.90
2018-06-01T12:17:27.106Z,2.70
2018-06-01T12:19:55.366Z,2.63
2018-06-01T12:22:23.646Z,2.67
2018-06-01T12:24:51.939Z,2.80
2018-06-01T12:27:20.201Z,3.20
2018-06-01T12:29:48.464Z,2.60
2018-06-01T12:32:16.077Z,2.80
2018-06-01T12:34:43.581Z,2.57
2018-06-01T12:37:11.056Z,2.80
2018-06-01T12:39:39.313Z,2.73
2018-06-01T12:42:06.782Z,3.10
2018-06-01T12:44:35.034Z,3.00
2018-06-01T12:47:02.548Z,3.20
2018-06-01T12:49:30.805Z,3.00
2018-06-01T12:51:59.077Z,2.83
2018-06-01T12:54:27.340Z,2.50
2018-06-01T12:56:54.859Z,2.83
2018-06-01T12:59:22.333Z,2.40
2018-06-01T13:01:49.854Z,3.27
2018-06-01T13:04:18.078Z,2.67
2018-06-01T13:06:45.598Z,3.00
2018-06-01T13:09:13.910Z,2.53
2018-06-01T13:11:41.418Z,2.80
2018-06-01T13:14:09.691Z,2.90
2018-06-01T13:16:38.006Z,2.80
2018-06-01T13:19:05.694Z,3.00
2018-06-01T13:21:33.176Z,2.87
2018-06-01T13:24:01.456Z,2.50
2018-06-01T13:26:29.780Z,2.30
2018-06-01T13:28:57.437Z,2.50
2018-06-01T13:31:24.902Z,2.63
2018-06-01T13:33:52.404Z,2.90
2018-06-01T13:36:19.872Z,3.67
2018-06-01T13:38:47.553Z,2.53
2018-06-01T13:41:15.021Z,3.13
2018-06-01T13:43:42.711Z,2.90
2018-06-01T13:46:10.206Z,2.73
2018-06-01T13:48:37.707Z,2.63
2018-06-01T13:51:05.209Z,2.20
2018-06-01T13:53:32.698Z,3.50
2018-06-01T13:56:01.907Z,2.87
2018-06-01T13:58:30.145Z,2.90
2018-06-01T14:00:57.958Z,2.70
2018-06-01T14:03:26.215Z,2.70
2018-06-01T14:05:54.502Z,3.07
2018-06-01T14:08:22.779Z,2.67
2018-06-01T14:10:51.057Z,2.63
2018-06-01T14:13:18.577Z,2.50
2018-06-01T14:15:46.082Z,2.07
2018-06-01T14:18:13.609Z,2.60
2018-06-01T14:20:41.857Z,2.40
2018-06-01T14:23:09.366Z,2.70
2018-06-01T14:25:37.623Z,2.33
2018-06-01T14:28:06.711Z,2.50
2018-06-01T14:30:34.250Z,2.10
2018-06-01T14:33:01.759Z,2.70
2018-06-01T14:35:30.010Z,2.60
2018-06-01T14:37:59.029Z,2.57
2018-06-01T14:40:27.273Z,2.43
2018-06-01T14:42:54.743Z,2.40
2018-06-01T14:45:23.010Z,2.60
2018-06-01T14:47:50.498Z,2.27
2018-06-01T14:50:18.795Z,2.33
2018-06-01T14:52:46.275Z,2.17
2018-06-01T14:55:13.771Z,2.60
2018-06-01T14:57:42.048Z,2.47
2018-06-01T15:00:09.562Z,2.57
2018-06-01T15:02:37.033Z,2.40
2018-06-01T15:05:04.557Z,2.40
2018-06-01T15:07:32.810Z,2.30
2018-06-01T15:10:01.099Z,2.77
2018-06-01T15:12:29.341Z,2.30
2018-06-01T15:14:56.857Z,2.13
2018-06-01T15:17:24.378Z,2.60
2018-06-01T15:19:51.863Z,2.90
2018-06-01T15:22:20.109Z,2.00
2018-06-01T15:24:48.385Z,3.10
2018-06-01T15:27:16.653Z,2.90
2018-06-01T15:29:44.124Z,2.53
2018-06-01T15:32:12.461Z,2.70
2018-06-01T15:34:39.932Z,2.70
2018-06-01T15:37:07.435Z,2.97
2018-06-01T15:39:35.671Z,2.30
2018-06-01T15:42:03.156Z,2.60
2018-06-01T15:44:31.403Z,2.50
2018-06-01T15:46:58.904Z,2.57
2018-06-01T15:49:27.149Z,2.50
2018-06-01T15:51:54.654Z,2.10
2018-06-01T15:54:22.929Z,2.27
2018-06-01T15:56:50.394Z,2.80
2018-06-01T15:59:17.909Z,3.57
2018-06-01T16:01:45.439Z,2.97
2018-06-01T16:04:12.925Z,2.70
2018-06-01T16:06:40.403Z,2.80
2018-06-01T16:09:08.634Z,2.70
2018-06-01T16:11:36.138Z,2.53
2018-06-01T16:14:04.367Z,2.20
2018-06-01T16:16:31.885Z,2.70
2018-06-01T16:19:00.155Z,2.40
2018-06-01T16:21:28.413Z,2.47
2018-06-01T16:23:55.969Z,2.53
2018-06-01T16:26:23.497Z,2.40
2018-06-01T16:28:51.001Z,2.93
2018-06-01T16:31:18.528Z,2.53
2018-06-01T16:33:46.030Z,3.00
2018-06-01T16:36:14.286Z,2.80
2018-06-01T16:38:43.273Z,2.70
2018-06-01T16:41:10.793Z,2.80
2018-06-01T16:43:38.305Z,3.20
2018-06-01T16:46:05.890Z,2.60
2018-06-01T16:48:34.163Z,2.53
2018-06-01T16:51:02.389Z,2.67
2018-06-01T16:53:29.927Z,3.10
2018-06-01T16:55:57.428Z,3.23
2018-06-01T16:58:24.945Z,2.37
2018-06-01T17:00:52.558Z,2.17
2018-06-01T17:03:20.134Z,2.73
2018-06-01T17:05:48.415Z,2.73
2018-06-01T17:08:16.673Z,2.80
2018-06-01T17:10:44.971Z,2.80
2018-06-01T17:13:12.413Z,2.50
2018-06-01T17:15:40.697Z,2.20
2018-06-01T17:18:08.977Z,2.50
2018-06-01T17:20:37.306Z,2.53
2018-06-01T17:23:04.828Z,2.97
2018-06-01T17:25:32.365Z,2.77
2018-06-01T17:28:00.902Z,2.97
2018-06-01T17:30:28.540Z,2.50
2018-06-01T17:32:56.144Z,2.63
2018-06-01T17:35:23.610Z,2.63
2018-06-01T17:37:51.123Z,2.73
2018-06-01T17:40:19.049Z,2.90
2018-06-01T17:42:46.550Z,3.00
2018-06-01T17:45:14.053Z,2.83
2018-06-01T17:47:41.561Z,2.80
2018-06-01T17:50:09.315Z,2.47
2018-06-01T17:52:37.589Z,2.67
2018-06-01T17:55:05.883Z,2.80
2018-06-01T17:57:33.397Z,3.03
2018-06-01T18:00:01.410Z,3.00
2018-06-01T18:02:28.921Z,3.10
2018-06-01T18:04:56.407Z,3.37
2018-06-01T18:07:24.704Z,3.00
2018-06-01T18:09:52.330Z,3.23
2018-06-01T18:12:20.043Z,2.93
2018-06-01T18:14:47.584Z,3.50
2018-06-01T18:17:15.849Z,3.13
2018-06-01T18:19:44.150Z,3.27
2018-06-01T18:22:11.659Z,3.90
2018-06-01T18:24:39.188Z,3.17
2018-06-01T18:27:06.701Z,3.40
2018-06-01T18:29:35.025Z,4.00
2018-06-01T18:32:02.503Z,3.30
2018-06-01T18:34:30.365Z,3.67
2018-06-01T18:36:57.841Z,3.70
2018-06-01T18:39:25.314Z,3.43
2018-06-01T18:41:53.613Z,3.23
2018-06-01T18:44:22.051Z,3.50
2018-06-01T18:46:49.768Z,3.50
2018-06-01T18:49:17.531Z,3.20
2018-06-01T18:51:45.041Z,3.80
2018-06-01T18:54:12.515Z,3.53
2018-06-01T18:56:41.032Z,3.00
2018-06-01T18:59:08.535Z,3.00
2018-06-01T19:01:36.022Z,3.00
2018-06-01T19:04:04.346Z,3.30
2018-06-01T19:06:31.845Z,3.20
2018-06-01T19:09:00.896Z,3.20
2018-06-01T19:11:28.406Z,3.40
2018-06-01T19:13:56.481Z,3.60
2018-06-01T19:16:24.741Z,3.20
2018-06-01T19:18:52.268Z,3.20
2018-06-01T19:21:19.738Z,3.07
2018-06-01T19:23:48.957Z,2.90
2018-06-01T19:26:16.667Z,3.00
2018-06-01T19:28:44.177Z,3.10
2018-06-01T19:31:11.664Z,2.73
2018-06-01T19:33:39.937Z,2.70
2018-06-01T19:36:08.218Z,3.10
2018-06-01T19:38:36.604Z,2.73
2018-06-01T19:41:04.865Z,3.10
2018-06-01T19:43:32.407Z,2.93
2018-06-01T19:45:59.914Z,3.53
2018-06-01T19:48:27.590Z,3.57
2018-06-01T19:50:55.447Z,3.13
2018-06-01T19:53:23.004Z,3.00
2018-06-01T19:55:50.518Z,2.87
2018-06-01T19:58:17.990Z,3.07
2018-06-01T20:00:45.498Z,3.33
2018-06-01T20:03:12.990Z,4.20
2018-06-01T20:05:40.506Z,3.53
2018-06-01T20:08:08.088Z,4.00
2018-06-01T20:10:35.855Z,3.67
2018-06-01T20:13:03.349Z,3.10
2018-06-01T20:15:32.394Z,3.50
2018-06-01T20:17:59.887Z,4.10
2018-06-01T20:20:27.403Z,3.50
2018-06-01T20:22:54.866Z,3.83
2018-06-01T20:25:22.559Z,4.37
2018-06-01T20:27:50.093Z,3.10
2018-06-01T20:30:17.558Z,3.90
2018-06-01T20:32:45.059Z,4.40
2018-06-01T20:35:12.555Z,3.93
2018-06-01T20:37:40.052Z,4.63
2018-06-01T20:40:07.547Z,4.10
2018-06-01T20:42:35.815Z,3.57
2018-06-01T20:45:03.290Z,4.10
2018-06-01T20:47:31.557Z,4.10
2018-06-01T20:49:59.782Z,3.63
2018-06-01T20:52:27.303Z,3.83
2018-06-01T20:54:55.549Z,3.70
2018-06-01T20:57:23.056Z,4.10
2018-06-01T20:59:50.541Z,3.67
2018-06-01T21:02:18.029Z,3.80
2018-06-01T21:04:45.493Z,3.60
2018-06-01T21:07:12.998Z,4.20
2018-06-01T21:09:40.531Z,4.03
2018-06-01T21:12:08.705Z,3.73
2018-06-01T21:14:36.981Z,4.10
2018-06-01T21:17:05.210Z,4.90
2018-06-01T21:19:32.713Z,4.03
2018-06-01T21:22:00.967Z,3.80
2018-06-01T21:24:29.236Z,3.60
2018-06-01T21:26:56.698Z,4.03
2018-06-01T21:29:24.222Z,3.67
2018-06-01T21:31:51.698Z,3.70
2018-06-01T21:34:19.216Z,4.03
2018-06-01T21:36:46.690Z,3.73
2018-06-01T21:39:14.195Z,3.93
2018-06-01T21:41:41.677Z,3.83
2018-06-01T21:44:09.941Z,3.23
2018-06-01T21:46:37.430Z,3.90
2018-06-01T21:49:04.906Z,4.70
2018-06-01T21:51:32.414Z,3.70
2018-06-01T21:53:59.903Z,3.97
2018-06-01T21:56:27.409Z,4.10
2018-06-01T21:58:54.910Z,4.37
2018-06-01T22:01:23.200Z,4.10
2018-06-01T22:03:50.747Z,3.87
2018-06-01T22:06:19.015Z,4.30
2018-06-01T22:08:47.247Z,3.70
2018-06-01T22:11:14.795Z,3.47
2018-06-01T22:13:42.298Z,3.83
2018-06-01T22:16:09.812Z,3.43
2018-06-01T22:18:38.063Z,4.17
2018-06-01T22:21:05.550Z,4.00
2018-06-01T22:23:33.092Z,3.63
2018-06-01T22:26:00.550Z,3.67
2018-06-01T22:28:28.038Z,3.53
2018-06-01T22:30:55.544Z,3.33
2018-06-01T22:33:23.787Z,3.73
2018-06-01T22:35:51.284Z,3.47
2018-06-01T22:38:19.534Z,3.20
2018-06-01T22:40:47.041Z,3.33
2018-06-01T22:43:14.504Z,3.87
2018-06-01T22:45:42.018Z,3.60
2018-06-01T22:48:10.249Z,3.80
2018-06-01T22:50:37.760Z,3.40
2018-06-01T22:53:06.009Z,3.83
2018-06-01T22:55:33.554Z,3.50
2018-06-01T22:58:01.028Z,4.47
2018-06-01T23:00:30.205Z,3.73
2018-06-01T23:02:57.702Z,3.93
2018-06-01T23:05:25.186Z,3.67
2018-06-01T23:07:53.458Z,3.60
2018-06-01T23:10:21.715Z,4.37
2018-06-01T23:12:49.227Z,3.13
2018-06-01T23:15:16.720Z,3.83
2018-06-01T23:17:44.992Z,3.97
2018-06-01T23:20:12.475Z,4.27
2018-06-01T23:22:40.733Z,4.33
2018-06-01T23:25:09.710Z,3.70
2018-06-01T23:27:37.211Z,4.00
2018-06-01T23:30:05.452Z,3.83
2018-06-01T23:32:32.958Z,4.10
2018-06-01T23:35:01.186Z,3.40
2018-06-01T23:37:28.674Z,4.50
2018-06-01T23:39:56.920Z,4.40
2018-06-01T23:42:24.409Z,3.60
2018-06-01T23:44:51.913Z,3.70
2018-06-01T23:47:19.403Z,4.20
2018-06-01T23:49:46.893Z,4.70
2018-06-01T23:52:15.145Z,4.20
2018-06-01T23:54:42.633Z,3.80
2018-06-01T23:57:10.857Z,4.10
2018-06-01T23:59:38.365Z,4.30
